Ingoldmells, United Kingdom
Current Conditions -  °F | °C
As of 7:50 AM on Tuesday 21 Oct 2014 (Local Time) from EGXS Reporting Station
Broken Clouds Broken Clouds  
Wind Chill: 55°   Ceiling: 6000
Heat Index: 55°   Visibility: 6mi
Dew Point: 52°   Wind: 28mph
Humidity: 88%   Direction: 200°SSW
Pressure: 29.29"   Gusts: NA
Location:  53.19°N, 0.33°E
Report Text: EGXS 210650Z AUTO 20024KT 9999 // SCT013/// BKN060/// 13/11 Q0992
Loading
Personal Weather Stations






























Interactive Weather Map
Tropical Storm Tracking
New forecast layout! Learn more

10-Day Weather Forecast

Advertisements
Track Severe Weather on mobile